Terminal Aerodrome Forecast
Issued by NWS

Home | Current Version | Previous Version | Text Only | Print | Product List | Glossary On
Versions: 1 2 3 4 5 6 7 8 9 10 11 12 13 14 15 16
000
FTUS41 KBTV 280254 AAA
TAFMSS
TAF AMD
KMSS 280254Z 2803/2824 22012KT P6SM BKN080
     FM280900 22011KT P6SM VCSH BKN040
     FM281500 26010G20KT P6SM BKN040=

USA.gov is the U.S. government's official web portal to all federal, state and local government web resources and services.